Time;durP1;ratioP1;P1;durP2;ratioP2;P2;SDS_P1;SDS_P2;PMS_P1;PMS_P2;Temp;Humidity;BMP_temperature;BMP_pressure;BME280_temperature;BME280_humidity;BME280_pressure;Samples;Min_cycle;Max_cycle;Signal;HPM_P1;HPM_P2
2023/01/10 00:00:04;;;;;;;;;;;;;;;20.09;55.86;100207.44;5017921;28;5283;-61
2023/01/10 00:02:31;;;;;;;;;;;;;;;20.12;56.13;100221.91;5022767;28;4008;-61
2023/01/10 00:04:57;;;;;;;;;;;;;;;20.11;56.06;100229.03;5014189;28;5304;-61
2023/01/10 00:07:23;;;;;;;;;;;;;;;20.09;56.22;100232.59;5016577;28;5314;-61
2023/01/10 00:09:50;;;;;;;;;;;;;;;20.09;56.15;100239.06;5008753;28;4378;-61
2023/01/10 00:15:01;;;;;;;;;;;;;;;20.08;55.89;100248.34;5020597;28;4236;-62
2023/01/10 00:17:27;;;;;;;;;;;;;;;20.07;55.99;100252.63;5020650;28;4112;-61
2023/01/10 00:19:54;;;;;;;;;;;;;;;20.06;56.05;100256.88;5021983;28;4191;-61
2023/01/10 00:22:23;;;;;;;;;;;;;;;20.06;55.88;100266.25;5016087;28;4207;-61
2023/01/10 00:24:50;;;;;;;;;;;;;;;20.05;55.57;100261.16;5019194;28;5429;-61
2023/01/10 00:27:21;;;;;;;;;;;;;;;20.04;55.72;100266.19;5019742;28;4181;-61
2023/01/10 00:29:50;;;;;;;;;;;;;;;20.04;55.84;100260.44;4997296;28;4455;-61
2023/01/10 00:32:16;;;;;;;;;;;;;;;20.03;55.90;100264.69;5020051;28;5501;-61
2023/01/10 00:34:42;;;;;;;;;;;;;;;20.03;55.77;100263.97;5020435;28;4194;-61
2023/01/10 00:37:09;;;;;;;;;;;;;;;20.03;55.66;100272.59;5021019;28;4172;-62
2023/01/10 00:39:35;;;;;;;;;;;;;;;20.01;55.85;100276.09;5022748;28;4203;-62
2023/01/10 00:44:46;;;;;;;;;;;;;;;20.01;55.88;100284.00;5020629;28;4040;-61
2023/01/10 00:47:13;;;;;;;;;;;;;;;20.00;55.88;100289.00;5016327;28;4233;-61
2023/01/10 00:49:39;;;;;;;;;;;;;;;20.00;55.81;100289.00;5009064;28;4121;-61
2023/01/10 00:52:06;;;;;;;;;;;;;;;20.00;55.85;100291.88;5021010;28;4126;-61
2023/01/10 00:54:32;;;;;;;;;;;;;;;19.99;55.60;100299.03;5023020;28;4097;-61
2023/01/10 00:56:58;;;;;;;;;;;;;;;19.99;55.74;100289.66;5019347;28;4183;-61
2023/01/10 00:59:25;;;;;;;;;;;;;;;19.97;55.73;100293.19;5017405;28;4159;-61
2023/01/10 01:01:51;;;;;;;;;;;;;;;19.97;55.58;100301.81;5019719;28;5326;-61
2023/01/10 01:04:18;;;;;;;;;;;;;;;19.97;55.58;100316.19;5023119;28;4159;-61
2023/01/10 01:06:45;;;;;;;;;;;;;;;19.97;55.54;100329.81;5019196;28;4144;-61
2023/01/10 01:09:12;;;;;;;;;;;;;;;19.97;55.53;100324.81;5020722;28;4173;-61
2023/01/10 01:11:38;;;;;;;;;;;;;;;19.96;55.59;100323.34;5022091;28;4198;-61
2023/01/10 01:14:05;;;;;;;;;;;;;;;19.95;55.53;100333.38;5020673;28;4048;-61
2023/01/10 01:16:31;;;;;;;;;;;;;;;19.96;55.62;100328.34;5025040;28;4126;-61
2023/01/10 01:18:57;;;;;;;;;;;;;;;19.96;55.68;100329.09;5022285;28;4104;-61
2023/01/10 01:21:27;;;;;;;;;;;;;;;19.94;55.60;100331.88;5018404;28;4366;-61
2023/01/10 01:23:55;;;;;;;;;;;;;;;19.95;55.40;100338.34;5025015;28;4254;-61
2023/01/10 01:26:22;;;;;;;;;;;;;;;19.93;55.42;100330.41;5024428;28;4134;-61
2023/01/10 01:28:48;;;;;;;;;;;;;;;19.93;55.45;100359.16;5019535;28;4007;-61
2023/01/10 01:31:15;;;;;;;;;;;;;;;19.92;55.38;100348.28;5022009;28;4219;-61
2023/01/10 01:33:41;;;;;;;;;;;;;;;19.93;55.44;100353.41;5023743;28;5208;-61
2023/01/10 01:36:11;;;;;;;;;;;;;;;19.92;55.48;100359.78;5025269;28;4182;-62
2023/01/10 01:38:37;;;;;;;;;;;;;;;19.91;55.37;100367.69;5026961;28;3978;-61
2023/01/10 01:41:55;;;;;;;;;;;;;;;19.90;55.51;100371.94;5025768;28;4139;-61
2023/01/10 01:44:22;;;;;;;;;;;;;;;19.88;55.52;100369.72;5025489;28;5383;-61
2023/01/10 01:46:49;;;;;;;;;;;;;;;19.88;55.26;100375.47;4961110;28;4181;-61
2023/01/10 01:49:18;;;;;;;;;;;;;;;19.88;55.38;100386.22;5021550;28;4154;-62
2023/01/10 01:51:45;;;;;;;;;;;;;;;19.88;55.18;100380.47;5024949;28;4026;-61
2023/01/10 01:54:12;;;;;;;;;;;;;;;19.89;55.42;100387.72;5026185;28;5325;-61
2023/01/10 01:56:41;;;;;;;;;;;;;;;19.89;55.41;100387.72;5018751;28;4123;-61
2023/01/10 01:59:12;;;;;;;;;;;;;;;19.88;55.27;100389.09;5024554;28;4022;-62
2023/01/10 02:01:38;;;;;;;;;;;;;;;19.87;55.44;100396.25;5023818;28;4155;-61
2023/01/10 02:04:09;;;;;;;;;;;;;;;19.87;55.20;100402.00;5025186;28;3956;-61
2023/01/10 02:06:36;;;;;;;;;;;;;;;19.87;55.19;100407.72;5019196;28;4205;-61
2023/01/10 02:09:06;;;;;;;;;;;;;;;19.87;55.15;100410.59;5003880;28;4232;-61
2023/01/10 02:11:33;;;;;;;;;;;;;;;19.86;55.29;100412.00;5001252;28;4282;-61
2023/01/10 02:14:00;;;;;;;;;;;;;;;19.86;55.09;100421.38;5024296;28;4207;-61
2023/01/10 02:16:26;;;;;;;;;;;;;;;19.85;55.14;100422.75;5023481;28;4426;-62
2023/01/10 02:19:17;;;;;;;;;;;;;;;19.85;55.15;100422.00;5026923;28;4105;-61
2023/01/10 02:21:55;;;;;;;;;;;;;;;19.85;55.23;100424.88;5019189;28;4201;-61
2023/01/10 02:24:29;;;;;;;;;;;;;;;19.85;55.27;100424.88;5019661;28;4161;-61
2023/01/10 02:27:05;;;;;;;;;;;;;;;19.84;55.28;100429.91;5002739;28;4141;-61
2023/01/10 02:29:45;;;;;;;;;;;;;;;19.82;55.29;100435.56;4993357;28;4502;-61
2023/01/10 02:32:16;;;;;;;;;;;;;;;19.84;55.29;100443.53;4995563;28;4073;-61
2023/01/10 02:34:51;;;;;;;;;;;;;;;19.82;55.25;100435.56;5005636;28;4246;-61
2023/01/10 02:37:19;;;;;;;;;;;;;;;19.83;55.28;100450.66;4999338;28;4064;-61
2023/01/10 02:39:59;;;;;;;;;;;;;;;19.81;55.01;100453.44;5002549;28;4303;-61
2023/01/10 02:42:29;;;;;;;;;;;;;;;19.82;55.15;100452.78;5005435;28;4116;-61
2023/01/10 02:45:14;;;;;;;;;;;;;;;19.80;55.06;100452.72;5005258;28;5681;-61
2023/01/10 02:47:40;;;;;;;;;;;;;;;19.80;55.22;100454.84;5021235;28;4223;-62
2023/01/10 02:50:36;;;;;;;;;;;;;;;19.81;55.21;100456.31;5013903;28;4491;-61
2023/01/10 02:53:03;;;;;;;;;;;;;;;19.81;55.21;100459.19;4979357;28;4143;-61
2023/01/10 02:55:33;;;;;;;;;;;;;;;19.79;55.14;100468.47;5025519;28;4082;-61
2023/01/10 02:58:18;;;;;;;;;;;;;;;19.79;55.22;100465.59;5024129;28;4183;-61
2023/01/10 03:00:47;;;;;;;;;;;;;;;19.80;55.25;100472.09;5018534;28;4814;-61
2023/01/10 03:03:16;;;;;;;;;;;;;;;19.79;55.16;100482.84;5003101;28;4502;-62
2023/01/10 03:05:54;;;;;;;;;;;;;;;19.78;55.19;100480.63;5022379;28;4581;-61
2023/01/10 03:08:25;;;;;;;;;;;;;;;19.79;55.14;100493.56;5007299;28;5409;-61
2023/01/10 03:11:07;;;;;;;;;;;;;;;19.80;55.18;100495.06;5005426;28;3984;-61
2023/01/10 03:13:51;;;;;;;;;;;;;;;19.82;55.27;100503.78;5024306;28;5639;-61
2023/01/10 03:16:18;;;;;;;;;;;;;;;19.81;55.08;100510.91;5008551;28;4115;-61
2023/01/10 03:38:33;;;;;;;;;;;;;;;19.88;56.30;100550.00;5006040;28;4143;-61
2023/01/10 03:41:03;;;;;;;;;;;;;;;19.87;56.14;100557.88;4998039;28;4224;-62
2023/01/10 03:46:39;;;;;;;;;;;;;;;19.89;55.58;100577.34;5000278;28;4044;-61
2023/01/10 03:49:05;;;;;;;;;;;;;;;19.90;55.38;100596.06;5021285;28;4176;-61
2023/01/10 03:51:31;;;;;;;;;;;;;;;19.92;55.52;100599.03;4996202;28;4012;-62
2023/01/10 03:53:58;;;;;;;;;;;;;;;19.92;55.38;100599.03;5006633;28;5379;-61
2023/01/10 03:56:25;;;;;;;;;;;;;;;19.94;55.43;100602.00;5021489;28;5256;-62
2023/01/10 03:58:51;;;;;;;;;;;;;;;19.95;55.70;100609.25;5015520;28;4098;-61
2023/01/10 04:01:18;;;;;;;;;;;;;;;19.96;55.47;100613.59;5011406;28;4088;-62
2023/01/10 04:03:44;;;;;;;;;;;;;;;19.97;55.92;100615.06;5020032;28;4128;-61
2023/01/10 04:06:10;;;;;;;;;;;;;;;19.97;56.17;100612.19;5022381;28;4456;-61
2023/01/10 04:08:37;;;;;;;;;;;;;;;19.98;56.07;100625.16;5014601;28;4043;-61
2023/01/10 04:11:03;;;;;;;;;;;;;;;19.96;55.98;100622.22;5016558;28;4162;-61
2023/01/10 04:13:29;;;;;;;;;;;;;;;19.97;56.10;100629.41;5016415;28;5216;-61
2023/01/10 04:15:58;;;;;;;;;;;;;;;19.97;56.29;100635.16;5016161;28;4189;-61
2023/01/10 04:18:24;;;;;;;;;;;;;;;19.97;56.57;100629.41;5022261;28;4112;-61
2023/01/10 04:20:50;;;;;;;;;;;;;;;19.97;55.98;100638.03;5023657;28;6455;-61
2023/01/10 04:23:17;;;;;;;;;;;;;;;19.98;56.25;100651.03;5021359;28;4152;-61
2023/01/10 04:25:45;;;;;;;;;;;;;;;19.99;56.18;100652.50;5022178;28;4243;-61
2023/01/10 04:28:11;;;;;;;;;;;;;;;19.99;56.55;100655.38;5021647;28;4508;-61
2023/01/10 04:30:38;;;;;;;;;;;;;;;20.01;56.84;100657.63;5016074;28;4202;-61
2023/01/10 04:33:06;;;;;;;;;;;;;;;20.01;56.47;100675.59;5024926;28;4160;-61
2023/01/10 04:35:32;;;;;;;;;;;;;;;20.02;56.42;100679.97;5018090;28;4133;-61
2023/01/10 04:37:59;;;;;;;;;;;;;;;20.03;56.17;100678.56;5024581;28;4214;-61
2023/01/10 04:40:25;;;;;;;;;;;;;;;20.03;56.48;100684.31;5022050;28;5194;-61
2023/01/10 04:42:52;;;;;;;;;;;;;;;20.05;56.65;100698.78;5017111;28;4240;-61
2023/01/10 04:45:20;;;;;;;;;;;;;;;20.04;56.76;100703.06;5017387;28;4141;-61
2023/01/10 04:47:50;;;;;;;;;;;;;;;20.04;56.98;100703.06;5023554;28;4075;-61
2023/01/10 04:50:16;;;;;;;;;;;;;;;20.04;56.82;100708.81;5022933;28;4188;-61
2023/01/10 04:52:43;;;;;;;;;;;;;;;20.03;57.19;100710.19;5025160;28;3990;-61
2023/01/10 04:55:09;;;;;;;;;;;;;;;20.03;57.12;100715.19;5019922;28;4260;-61
2023/01/10 04:57:35;;;;;;;;;;;;;;;20.04;56.95;100720.31;5023704;28;4193;-61
2023/01/10 05:00:02;;;;;;;;;;;;;;;20.05;56.44;100716.03;5022349;28;4150;-61
2023/01/10 05:02:28;;;;;;;;;;;;;;;20.05;56.37;100727.53;5013468;28;5217;-61
2023/01/10 05:04:55;;;;;;;;;;;;;;;20.08;56.40;100731.22;5021458;28;5402;-61
2023/01/10 05:07:21;;;;;;;;;;;;;;;20.07;56.60;100739.13;5017826;28;4009;-61
2023/01/10 05:09:47;;;;;;;;;;;;;;;20.08;56.87;100740.59;5022551;28;4209;-61
2023/01/10 05:12:14;;;;;;;;;;;;;;;20.08;57.04;100746.34;5022571;28;4165;-61
2023/01/10 05:14:40;;;;;;;;;;;;;;;20.09;57.15;100750.72;5021409;28;5368;-61
2023/01/10 05:17:06;;;;;;;;;;;;;;;20.08;57.61;100769.34;5016868;28;4188;-61
2023/01/10 05:19:33;;;;;;;;;;;;;;;20.09;57.63;100767.22;5021631;28;7359;-61
2023/01/10 05:21:59;;;;;;;;;;;;;;;20.09;57.56;100772.97;5023807;28;3994;-61
2023/01/10 05:24:25;;;;;;;;;;;;;;;20.08;57.63;100777.97;5021384;28;5217;-61
2023/01/10 05:26:52;;;;;;;;;;;;;;;20.08;57.47;100777.97;5021658;28;4196;-61
2023/01/10 05:29:18;;;;;;;;;;;;;;;20.07;57.28;100776.47;5016545;28;4181;-61
2023/01/10 05:31:44;;;;;;;;;;;;;;;20.09;57.47;100790.94;5020041;28;4162;-61
2023/01/10 05:34:11;;;;;;;;;;;;;;;20.09;57.42;100793.09;5022584;28;4186;-61
2023/01/10 05:36:38;;;;;;;;;;;;;;;20.08;57.55;100795.19;5015915;28;4174;-61
2023/01/10 05:39:04;;;;;;;;;;;;;;;20.09;57.27;100799.56;5015719;28;5376;-61
2023/01/10 05:41:30;;;;;;;;;;;;;;;20.10;57.50;100803.19;5016708;28;4110;-61
2023/01/10 05:43:57;;;;;;;;;;;;;;;20.11;57.49;100798.19;5022204;28;4264;-62
2023/01/10 05:46:23;;;;;;;;;;;;;;;20.12;57.67;100805.44;5013282;28;4458;-63
2023/01/10 05:48:50;;;;;;;;;;;;;;;20.13;57.15;100807.63;5017170;28;4214;-61
2023/01/10 05:51:17;;;;;;;;;;;;;;;20.14;57.26;100808.41;5015162;28;4213;-62
2023/01/10 05:53:43;;;;;;;;;;;;;;;20.11;57.23;100827.66;5016797;28;4049;-62
2023/01/10 05:56:09;;;;;;;;;;;;;;;20.18;57.44;100825.81;5015306;28;4186;-61
2023/01/10 05:58:36;;;;;;;;;;;;;;;20.14;57.08;100825.66;5002191;28;4916;-61
2023/01/10 06:01:02;;;;;;;;;;;;;;;20.13;57.38;100835.66;5012217;28;4161;-61
2023/01/10 06:03:28;;;;;;;;;;;;;;;20.19;57.18;100850.31;5010639;28;4302;-65
2023/01/10 06:05:55;;;;;;;;;;;;;;;20.19;57.36;100856.06;5015670;28;4134;-64
2023/01/10 06:08:21;;;;;;;;;;;;;;;20.18;57.29;100857.44;5011524;28;5490;-64
2023/01/10 06:10:48;;;;;;;;;;;;;;;20.24;57.14;100867.09;5016965;28;4704;-65
2023/01/10 06:13:14;;;;;;;;;;;;;;;20.25;57.98;100867.84;5020427;28;4157;-65
2023/01/10 06:15:41;;;;;;;;;;;;;;;20.24;57.60;100869.22;5021007;28;4331;-66
2023/01/10 06:18:07;;;;;;;;;;;;;;;20.23;58.45;100880.00;4996237;28;4113;-63
2023/01/10 06:20:37;;;;;;;;;;;;;;;20.23;58.61;100876.38;5018052;28;4063;-63
2023/01/10 06:23:03;;;;;;;;;;;;;;;20.24;58.20;100874.97;5022253;28;4135;-65
2023/01/10 06:25:30;;;;;;;;;;;;;;;20.25;59.04;100882.25;5017813;28;4045;-65
2023/01/10 06:27:57;;;;;;;;;;;;;;;20.25;58.64;100890.88;5022903;28;3903;-65
2023/01/10 06:30:23;;;;;;;;;;;;;;;20.26;58.95;100901.69;5023920;28;4453;-63
2023/01/10 06:32:49;;;;;;;;;;;;;;;20.26;59.34;100901.69;5025625;28;4355;-65
2023/01/10 06:35:19;;;;;;;;;;;;;;;20.26;59.04;100906.72;5022362;28;4165;-65
2023/01/10 06:37:45;;;;;;;;;;;;;;;20.26;58.76;100916.06;5021829;28;4094;-65
2023/01/10 06:40:11;;;;;;;;;;;;;;;20.28;58.09;100921.19;5022515;28;4208;-65
2023/01/10 06:42:38;;;;;;;;;;;;;;;20.28;58.39;100929.81;5021500;28;4522;-65
2023/01/10 06:45:05;;;;;;;;;;;;;;;20.32;58.65;100930.00;5003168;28;4336;-66
2023/01/10 06:47:31;;;;;;;;;;;;;;;20.32;58.96;100938.66;5024060;28;5205;-69
2023/01/10 06:49:57;;;;;;;;;;;;;;;20.33;58.87;100939.38;5025937;28;4281;-67
2023/01/10 06:52:24;;;;;;;;;;;;;;;20.33;58.79;100945.88;5020509;28;5262;-65
2023/01/10 06:54:51;;;;;;;;;;;;;;;20.33;59.37;100945.13;5014682;28;4259;-64
2023/01/10 06:57:18;;;;;;;;;;;;;;;20.32;58.96;100953.03;5018088;28;5228;-66
2023/01/10 06:59:44;;;;;;;;;;;;;;;20.44;58.08;100956.47;5012357;28;4160;-62
2023/01/10 07:02:11;;;;;;;;;;;;;;;20.40;58.26;100953.41;5015925;28;4272;-63
2023/01/10 07:04:37;;;;;;;;;;;;;;;20.40;58.72;100962.03;4998598;28;4137;-62
2023/01/10 07:07:04;;;;;;;;;;;;;;;20.29;58.75;100974.44;5019485;28;4154;-62
2023/01/10 07:09:30;;;;;;;;;;;;;;;20.30;58.69;100975.94;5025416;28;4017;-62
2023/01/10 07:11:56;;;;;;;;;;;;;;;20.30;58.21;100975.94;5024402;28;5218;-62
2023/01/10 07:14:23;;;;;;;;;;;;;;;20.31;58.01;100983.16;5024249;28;4217;-62
2023/01/10 07:16:49;;;;;;;;;;;;;;;20.32;58.01;100987.53;5023251;28;4027;-62
2023/01/10 07:19:17;;;;;;;;;;;;;;;20.33;57.61;101002.66;5023635;28;5307;-64
2023/01/10 07:21:43;;;;;;;;;;;;;;;20.35;57.55;101002.75;5025197;28;4299;-64
2023/01/10 07:24:09;;;;;;;;;;;;;;;20.35;57.46;101006.38;5023113;28;4130;-64
2023/01/10 07:26:36;;;;;;;;;;;;;;;20.33;57.65;101009.13;5024249;28;4187;-63
2023/01/10 07:29:02;;;;;;;;;;;;;;;20.34;57.49;101007.00;5025272;28;5433;-63
2023/01/10 07:31:28;;;;;;;;;;;;;;;20.34;57.29;101016.41;5023035;28;5195;-64
2023/01/10 07:33:55;;;;;;;;;;;;;;;20.32;57.42;101019.16;5023729;28;5297;-65
2023/01/10 07:36:21;;;;;;;;;;;;;;;20.39;57.97;101026.69;5020972;28;4103;-66
2023/01/10 07:38:53;;;;;;;;;;;;;;;20.64;57.44;101031.53;5024276;28;5416;-62
2023/01/10 07:41:20;;;;;;;;;;;;;;;20.70;56.65;101042.56;5025247;28;4109;-62
2023/01/10 07:43:47;;;;;;;;;;;;;;;20.70;56.02;101040.44;5019784;28;4338;-66
2023/01/10 07:46:14;;;;;;;;;;;;;;;20.67;54.50;101046.75;5006614;28;4318;-67
2023/01/10 07:48:40;;;;;;;;;;;;;;;20.64;53.85;101054.53;5019363;28;4107;-71
2023/01/10 07:51:07;;;;;;;;;;;;;;;20.69;53.79;101058.38;5018745;28;4201;-66
2023/01/10 07:53:33;;;;;;;;;;;;;;;20.75;53.26;101063.66;5017453;28;4119;-68
2023/01/10 07:56:00;;;;;;;;;;;;;;;20.68;52.55;101074.91;5021305;28;3961;-71
2023/01/10 07:58:26;;;;;;;;;;;;;;;20.74;52.77;101080.19;5020829;28;4314;-68
2023/01/10 08:00:56;;;;;;;;;;;;;;;20.75;52.24;101081.66;5022272;28;4136;-67
2023/01/10 08:03:23;;;;;;;;;;;;;;;20.82;51.90;101086.34;5018089;28;5282;-63
2023/01/10 08:05:55;;;;;;;;;;;;;;;20.82;51.63;101086.34;5019692;28;5055;-65
2023/01/10 08:08:22;;;;;;;;;;;;;;;20.56;51.31;101099.41;5017703;28;4229;-66
2023/01/10 08:10:48;;;;;;;;;;;;;;;20.39;49.88;101095.72;5017611;28;5402;-69
2023/01/10 08:13:14;;;;;;;;;;;;;;;20.39;50.50;101109.38;5020484;28;4184;-68
2023/01/10 08:15:45;;;;;;;;;;;;;;;20.40;49.34;101105.09;5021940;28;3928;-68
2023/01/10 08:18:12;;;;;;;;;;;;;;;20.33;49.48;101106.19;5025342;28;4178;-68
2023/01/10 08:20:39;;;;;;;;;;;;;;;19.83;48.21;101112.28;5021565;28;4199;-73
2023/01/10 08:23:05;;;;;;;;;;;;;;;19.39;48.02;101122.84;5021525;28;4213;-65
2023/01/10 08:25:31;;;;;;;;;;;;;;;19.95;47.95;101117.94;5015234;28;4236;-65
2023/01/10 08:27:58;;;;;;;;;;;;;;;20.24;49.84;101125.16;5019014;28;5486;-66
2023/01/10 08:30:34;;;;;;;;;;;;;;;20.62;49.65;101131.41;5021227;28;5246;-63
2023/01/10 08:33:00;;;;;;;;;;;;;;;20.74;49.83;101137.75;5019013;28;4200;-67
2023/01/10 08:35:27;;;;;;;;;;;;;;;20.84;50.38;101129.59;5018982;28;5235;-64
2023/01/10 08:37:56;;;;;;;;;;;;;;;20.99;50.63;101127.41;5016415;28;5692;-63
2023/01/10 08:40:23;;;;;;;;;;;;;;;21.08;50.83;101135.06;5019839;28;4501;-63
2023/01/10 08:42:55;;;;;;;;;;;;;;;21.11;51.14;101137.38;5020412;28;4252;-62
2023/01/10 08:45:21;;;;;;;;;;;;;;;21.11;51.22;101145.28;5017895;28;4153;-63
2023/01/10 08:47:47;;;;;;;;;;;;;;;21.19;51.61;101150.66;5019135;28;4210;-65
2023/01/10 08:50:14;;;;;;;;;;;;;;;21.32;51.54;101147.72;5018712;28;4073;-70
2023/01/10 08:52:40;;;;;;;;;;;;;;;21.34;51.43;101147.81;5019600;28;4193;-70
2023/01/10 08:55:07;;;;;;;;;;;;;;;21.14;51.94;101167.00;5016959;28;4148;-71
2023/01/10 08:57:33;;;;;;;;;;;;;;;20.98;52.68;101160.47;5017881;28;4283;-68
2023/01/10 08:59:59;;;;;;;;;;;;;;;20.91;52.85;101165.94;5019980;28;4155;-67
2023/01/10 09:02:26;;;;;;;;;;;;;;;20.95;53.06;101176.16;5017998;28;3986;-70
2023/01/10 09:04:52;;;;;;;;;;;;;;;20.96;53.03;101175.53;5017499;28;4038;-70
2023/01/10 09:07:18;;;;;;;;;;;;;;;20.99;52.95;101179.25;5015000;28;4080;-66
2023/01/10 09:09:45;;;;;;;;;;;;;;;21.01;52.90;101185.09;5016778;28;5265;-66
2023/01/10 09:14:56;;;;;;;;;;;;;;;20.90;51.38;101189.59;5015900;28;4123;-67
2023/01/10 09:17:22;;;;;;;;;;;;;;;20.88;52.08;101196.00;5018461;28;4128;-68
2023/01/10 09:19:49;;;;;;;;;;;;;;;20.94;52.25;101192.69;5018591;28;4060;-68
2023/01/10 09:22:15;;;;;;;;;;;;;;;20.97;53.09;101200.03;5016271;28;4153;-66
2023/01/10 09:24:47;;;;;;;;;;;;;;;20.97;53.41;101194.28;5013045;28;4075;-68
2023/01/10 09:27:13;;;;;;;;;;;;;;;20.87;53.33;101185.88;5022585;28;4030;-65
2023/01/10 09:29:39;;;;;;;;;;;;;;;20.68;51.97;101203.63;5024134;28;4266;-64
2023/01/10 09:35:00;;;;;;;;;;;;;;;20.84;52.58;101207.31;5012538;28;4126;-66
2023/01/10 09:37:27;;;;;;;;;;;;;;;20.90;53.08;101210.50;5012005;28;4254;-67
2023/01/10 09:39:53;;;;;;;;;;;;;;;20.95;53.05;101213.59;4994417;28;4202;-68
2023/01/10 09:42:19;;;;;;;;;;;;;;;20.97;53.25;101207.94;5019050;28;3981;-66
2023/01/10 09:44:55;;;;;;;;;;;;;;;20.98;53.47;101212.28;5011393;28;5424;-66
2023/01/10 09:47:33;;;;;;;;;;;;;;;21.02;53.52;101218.25;5012950;28;4189;-67
2023/01/10 09:50:37;;;;;;;;;;;;;;;21.07;53.41;101214.19;5018562;28;4199;-67
2023/01/10 09:53:19;;;;;;;;;;;;;;;21.02;53.62;101226.88;5001947;28;4123;-67
2023/01/10 09:55:47;;;;;;;;;;;;;;;21.08;53.80;101221.44;4997574;28;4169;-65
2023/01/10 09:58:15;;;;;;;;;;;;;;;21.05;53.71;101219.84;4991074;28;4372;-65
2023/01/10 10:00:43;;;;;;;;;;;;;;;20.94;54.25;101215.72;4995451;28;4869;-70
2023/01/10 10:03:15;;;;;;;;;;;;;;;20.99;54.18;101210.91;4996402;28;4315;-69
2023/01/10 10:05:42;;;;;;;;;;;;;;;21.03;54.10;101214.00;5021462;28;5308;-68
2023/01/10 10:08:34;;;;;;;;;;;;;;;21.06;53.91;101216.31;5019657;28;4287;-69
2023/01/10 10:11:14;;;;;;;;;;;;;;;21.08;53.91;101210.66;5017997;28;5410;-69
2023/01/10 10:13:49;;;;;;;;;;;;;;;21.13;53.71;101208.72;4995329;28;4015;-69
2023/01/10 10:16:34;;;;;;;;;;;;;;;21.13;54.07;101212.34;5006449;28;4808;-69
2023/01/10 10:19:03;;;;;;;;;;;;;;;21.06;53.79;101218.47;5021857;28;4122;-72
2023/01/10 10:21:33;;;;;;;;;;;;;;;20.01;50.93;101232.50;4992295;28;4083;-78
2023/01/10 10:24:15;;;;;;;;;;;;;;;19.17;47.83;101222.88;5000641;28;3943;-75
2023/01/10 10:26:48;;;;;;;;;;;;;;;19.30;46.66;101221.41;4997713;28;3925;-71
2023/01/10 10:29:29;;;;;;;;;;;;;;;20.17;47.18;101227.59;5001246;28;4307;-71
2023/01/10 10:32:00;;;;;;;;;;;;;;;20.53;48.03;101221.53;5000919;28;4014;-69
2023/01/10 10:34:35;;;;;;;;;;;;;;;20.78;49.61;101238.69;5018181;28;4220;-78
2023/01/10 10:37:04;;;;;;;;;;;;;;;20.74;48.46;101234.84;5000913;28;4199;-70
2023/01/10 10:39:33;;;;;;;;;;;;;;;20.74;49.51;101235.59;5009682;28;5540;-72
2023/01/10 10:41:59;;;;;;;;;;;;;;;20.84;50.24;101227.47;4995381;28;4047;-69
2023/01/10 10:44:31;;;;;;;;;;;;;;;21.00;50.43;101238.31;5002050;28;4172;-69
2023/01/10 10:46:57;;;;;;;;;;;;;;;21.05;50.54;101237.88;5021557;28;4047;-70
2023/01/10 10:49:37;;;;;;;;;;;;;;;20.99;51.14;101254.09;5016959;28;4009;-72
2023/01/10 10:52:08;;;;;;;;;;;;;;;20.91;52.07;101258.06;4995743;28;5278;-68
2023/01/10 10:54:35;;;;;;;;;;;;;;;20.85;52.41;101260.63;5016764;28;4135;-66
2023/01/10 10:57:02;;;;;;;;;;;;;;;20.87;52.61;101254.97;5021829;28;3898;-72
2023/01/10 10:59:28;;;;;;;;;;;;;;;20.99;52.75;101260.59;5001267;28;4130;-71
2023/01/10 11:01:54;;;;;;;;;;;;;;;21.05;52.11;101251.50;5019852;28;4417;-73
2023/01/10 11:04:21;;;;;;;;;;;;;;;21.11;52.71;101243.91;5019128;28;4117;-73
2023/01/10 11:06:48;;;;;;;;;;;;;;;21.21;52.53;101240.03;5003898;28;4949;-70
2023/01/10 11:09:16;;;;;;;;;;;;;;;21.21;52.65;101246.56;5015363;28;4137;-73
2023/01/10 11:11:43;;;;;;;;;;;;;;;21.25;52.45;101238.09;4991308;28;4360;-70
2023/01/10 11:14:10;;;;;;;;;;;;;;;21.25;53.05;101232.34;5015664;28;4134;-71
2023/01/10 11:16:38;;;;;;;;;;;;;;;21.26;53.01;101239.59;5002211;28;4146;-70
2023/01/10 11:19:17;;;;;;;;;;;;;;;21.30;52.90;101236.94;5022672;28;4214;-71
2023/01/10 11:21:48;;;;;;;;;;;;;;;21.31;52.72;101247.06;5015649;28;4307;-67
2023/01/10 11:24:21;;;;;;;;;;;;;;;21.27;52.95;101249.72;5013653;28;4776;-68
2023/01/10 11:26:48;;;;;;;;;;;;;;;21.11;53.62;101243.16;5004197;28;4116;-72
2023/01/10 11:29:14;;;;;;;;;;;;;;;20.98;54.08;101235.31;4977099;28;4097;-71
2023/01/10 11:31:40;;;;;;;;;;;;;;;20.99;53.97;101242.59;5015856;28;4018;-71
2023/01/10 11:34:15;;;;;;;;;;;;;;;21.00;54.20;101249.81;5017166;28;4193;-73
2023/01/10 11:36:52;;;;;;;;;;;;;;;21.03;53.99;101260.81;4993061;28;4069;-75
2023/01/10 11:39:18;;;;;;;;;;;;;;;21.18;53.87;101268.00;5018699;28;4075;-75
2023/01/10 11:41:44;;;;;;;;;;;;;;;21.29;53.74;101263.50;5016302;28;4148;-72
2023/01/10 11:44:26;;;;;;;;;;;;;;;21.32;53.91;101267.94;4990721;28;3909;-72
2023/01/10 11:46:54;;;;;;;;;;;;;;;21.41;53.62;101274.88;5021651;28;4249;-73
2023/01/10 11:49:35;;;;;;;;;;;;;;;21.41;53.63;101275.63;5018937;28;5241;-71
2023/01/10 11:52:02;;;;;;;;;;;;;;;21.36;53.99;101273.91;5016299;28;4113;-72
2023/01/10 11:54:29;;;;;;;;;;;;;;;21.32;53.89;101265.81;5016123;28;4110;-69
2023/01/10 11:57:00;;;;;;;;;;;;;;;21.38;53.97;101267.53;5020741;28;3936;-72
2023/01/10 11:59:26;;;;;;;;;;;;;;;21.43;54.10;101267.09;5018593;28;4080;-72
2023/01/10 12:01:55;;;;;;;;;;;;;;;21.29;54.15;101269.25;5020008;28;5438;-76
2023/01/10 12:04:21;;;;;;;;;;;;;;;21.36;54.34;101273.19;5009249;28;4025;-74
2023/01/10 12:06:48;;;;;;;;;;;;;;;21.41;54.31;101269.88;5016992;28;4608;-75
2023/01/10 12:09:36;;;;;;;;;;;;;;;21.49;54.18;101266.66;5003783;28;4104;-77
2023/01/10 12:12:23;;;;;;;;;;;;;;;21.46;54.04;101267.94;5017232;28;4036;-72
2023/01/10 12:14:49;;;;;;;;;;;;;;;21.48;54.22;101273.78;5020069;28;4169;-79
2023/01/10 12:17:19;;;;;;;;;;;;;;;21.50;54.19;101271.75;4995688;28;4123;-74
2023/01/10 12:19:45;;;;;;;;;;;;;;;21.51;54.19;101272.50;5018408;28;4232;-77
2023/01/10 12:22:12;;;;;;;;;;;;;;;21.54;54.08;101276.97;5014134;28;5314;-72
2023/01/10 12:24:39;;;;;;;;;;;;;;;21.54;53.92;101282.75;5018572;28;5069;-77
2023/01/10 12:27:06;;;;;;;;;;;;;;;21.50;54.21;101276.78;5020120;28;3997;-80
2023/01/10 12:29:39;;;;;;;;;;;;;;;21.53;54.02;101287.00;4997731;28;5058;-83
2023/01/10 12:32:12;;;;;;;;;;;;;;;21.53;54.37;101289.88;5015545;28;5278;-72
2023/01/10 12:34:43;;;;;;;;;;;;;;;21.55;54.44;101289.97;5016298;28;4672;-72
2023/01/10 12:37:15;;;;;;;;;;;;;;;21.51;54.46;101298.44;5018891;28;4175;-75
2023/01/10 12:39:49;;;;;;;;;;;;;;;21.44;54.61;101290.88;5011424;28;4038;-74
2023/01/10 12:45:10;;;;;;;;;;;;;;;21.58;55.11;101296.59;5016823;28;4365;-81
2023/01/10 12:47:41;;;;;;;;;;;;;;;21.58;55.05;101296.59;4989888;28;4200;-78
2023/01/10 12:50:12;;;;;;;;;;;;;;;21.68;54.99;101303.59;4983859;28;5266;-78
2023/01/10 12:52:47;;;;;;;;;;;;;;;21.66;54.79;101309.25;5014298;28;4020;-78
2023/01/10 12:55:19;;;;;;;;;;;;;;;21.68;54.64;101312.22;4990992;28;4270;-76
2023/01/10 12:57:47;;;;;;;;;;;;;;;21.69;54.73;101310.09;4996471;28;3956;-77
2023/01/10 13:00:19;;;;;;;;;;;;;;;21.66;54.71;101323.66;5011343;28;4142;-79
2023/01/10 13:02:46;;;;;;;;;;;;;;;21.67;54.82;101330.16;5016812;28;4352;-69
2023/01/10 13:05:19;;;;;;;;;;;;;;;21.62;55.07;101332.09;4983868;28;5077;-71
2023/01/10 13:07:45;;;;;;;;;;;;;;;21.59;55.19;101347.81;5018279;28;4530;-72
2023/01/10 13:10:14;;;;;;;;;;;;;;;21.51;54.92;101342.41;5001873;28;4526;-73
2023/01/10 13:12:41;;;;;;;;;;;;;;;21.55;54.89;101347.59;5003982;28;4120;-71
2023/01/10 13:15:13;;;;;;;;;;;;;;;21.46;55.61;101343.59;4994670;28;4413;-71
2023/01/10 13:17:41;;;;;;;;;;;;;;;21.49;55.34;101342.31;5020818;28;4200;-76
2023/01/10 13:20:20;;;;;;;;;;;;;;;21.47;55.01;101347.97;4998193;28;4180;-76
2023/01/10 13:22:47;;;;;;;;;;;;;;;21.40;55.23;101343.28;5011433;28;4168;-71
2023/01/10 13:25:20;;;;;;;;;;;;;;;21.46;55.22;101351.47;5011567;28;4191;-71
2023/01/10 13:27:46;;;;;;;;;;;;;;;21.38;54.98;101351.81;4990365;28;5171;-73
2023/01/10 13:30:30;;;;;;;;;;;;;;;21.48;55.14;101337.19;4990598;28;4511;-72
2023/01/10 13:33:00;;;;;;;;;;;;;;;21.49;55.25;101347.31;4997649;28;4029;-74